Time;durP1;ratioP1;P1;durP2;ratioP2;P2;SDS_P1;SDS_P2;PMS_P1;PMS_P2;Temp;Humidity;BMP_temperature;BMP_pressure;BME280_temperature;BME280_humidity;BME280_pressure;Samples;Min_cycle;Max_cycle;Signal;HPM_P1;HPM_P2
2023/03/10 00:01:16;;;;;;;1.20;0.40;;;;;;;13.51;63.56;98417.59;5070023;28;20213;-73
2023/03/10 00:03:44;;;;;;;3.50;0.50;;;;;;;13.46;63.90;98420.06;5071554;28;20576;-72
2023/03/10 00:06:14;;;;;;;1.07;0.37;;;;;;;13.50;63.77;98422.09;5076947;28;20233;-74
2023/03/10 00:08:42;;;;;;;1.70;0.53;;;;;;;13.53;63.75;98407.56;5073438;28;20237;-72
2023/03/10 00:11:11;;;;;;;1.37;0.50;;;;;;;13.48;64.28;98418.03;5070864;28;20292;-72
2023/03/10 00:13:38;;;;;;;4.23;0.50;;;;;;;13.60;64.25;98410.97;5075943;28;20644;-72
2023/03/10 00:16:07;;;;;;;0.70;0.40;;;;;;;13.51;64.56;98398.97;5071879;28;20212;-73
2023/03/10 00:18:36;;;;;;;7.60;1.87;;;;;;;13.46;65.04;98394.28;5073824;28;20281;-72
2023/03/10 00:21:05;;;;;;;1.93;0.50;;;;;;;13.38;65.41;98393.72;5074453;28;20200;-71
2023/03/10 00:23:32;;;;;;;2.30;0.57;;;;;;;13.37;65.92;98394.78;5074359;28;20209;-73
2023/03/10 00:26:04;;;;;;;1.60;0.53;;;;;;;13.30;66.35;98384.16;5074028;28;20203;-73
2023/03/10 00:28:31;;;;;;;1.67;0.40;;;;;;;13.27;66.86;98378.47;5074785;28;20227;-72
2023/03/10 00:31:01;;;;;;;2.67;0.60;;;;;;;13.26;67.24;98382.16;5069614;28;20211;-71
2023/03/10 00:33:30;;;;;;;1.57;0.60;;;;;;;13.34;66.55;98380.03;5071719;28;20266;-73
2023/03/10 00:36:04;;;;;;;1.60;0.50;;;;;;;13.34;66.71;98368.59;5074647;28;20230;-72
2023/03/10 00:38:32;;;;;;;3.37;0.60;;;;;;;13.41;66.45;98353.38;5073301;28;20206;-73
2023/03/10 00:41:01;;;;;;;2.40;0.80;;;;;;;13.36;66.42;98356.69;5071633;28;20699;-73
2023/03/10 00:43:29;;;;;;;1.93;0.60;;;;;;;13.40;66.35;98360.53;5071883;28;20209;-72
2023/03/10 00:45:57;;;;;;;1.30;0.50;;;;;;;13.33;66.70;98359.78;5070887;28;20221;-74
2023/03/10 00:48:25;;;;;;;1.80;0.93;;;;;;;13.33;66.65;98351.78;5069712;28;20329;-73
2023/03/10 00:50:53;;;;;;;1.43;0.60;;;;;;;13.33;66.74;98361.63;5071974;28;20205;-72
2023/03/10 00:53:23;;;;;;;2.70;0.60;;;;;;;13.27;66.42;98347.34;5071186;28;20215;-73
2023/03/10 00:55:58;;;;;;;3.07;0.87;;;;;;;13.27;66.72;98343.88;5073979;28;20656;-73
2023/03/10 00:58:26;;;;;;;1.63;0.50;;;;;;;13.31;66.49;98340.53;5074897;28;20212;-74
2023/03/10 01:00:55;;;;;;;1.47;0.40;;;;;;;13.23;66.66;98335.50;5073459;28;20212;-72
2023/03/10 01:03:24;;;;;;;1.00;0.40;;;;;;;13.22;66.88;98335.69;5072673;28;20252;-72
2023/03/10 01:05:52;;;;;;;1.63;0.40;;;;;;;13.28;66.81;98338.31;5071454;28;20222;-73
2023/03/10 01:08:22;;;;;;;1.00;0.40;;;;;;;13.31;66.83;98337.06;5070149;28;20253;-71
2023/03/10 01:10:51;;;;;;;0.80;0.30;;;;;;;13.31;66.48;98323.75;5069714;28;20216;-72
2023/03/10 01:13:19;;;;;;;1.10;0.40;;;;;;;13.22;66.33;98320.56;5071623;28;20564;-72
2023/03/10 01:15:47;;;;;;;1.17;0.43;;;;;;;13.20;66.46;98319.94;5072319;28;20732;-72
2023/03/10 01:18:16;;;;;;;1.07;0.37;;;;;;;13.21;66.71;98310.13;5073494;28;20270;-72
2023/03/10 01:20:44;;;;;;;0.60;0.30;;;;;;;13.17;67.01;98312.41;5072179;28;20212;-72
2023/03/10 01:23:15;;;;;;;0.93;0.30;;;;;;;13.24;66.77;98302.53;5071160;28;20218;-71
2023/03/10 01:25:44;;;;;;;0.90;0.30;;;;;;;13.35;66.17;98295.69;5071790;28;20224;-73
2023/03/10 01:28:12;;;;;;;1.20;0.30;;;;;;;13.27;66.21;98298.63;5074592;28;20668;-73
2023/03/10 01:30:40;;;;;;;1.23;0.50;;;;;;;13.27;66.45;98295.97;5070844;28;20236;-73
2023/03/10 01:33:09;;;;;;;2.47;0.60;;;;;;;13.18;66.86;98296.25;5073447;28;20239;-72
2023/03/10 01:35:37;;;;;;;1.27;0.37;;;;;;;13.16;67.41;98294.81;5077484;28;20567;-72
2023/03/10 01:38:05;;;;;;;2.60;0.60;;;;;;;13.15;67.38;98291.34;5074528;28;20216;-72
2023/03/10 01:40:33;;;;;;;3.23;0.53;;;;;;;13.12;67.39;98286.41;5074043;28;20223;-73
2023/03/10 01:43:34;;;;;;;2.73;0.50;;;;;;;13.07;68.34;98283.59;5076641;28;20204;-74
2023/03/10 01:46:42;;;;;;;1.07;0.40;;;;;;;13.11;68.33;98279.47;5011393;28;20223;-73
2023/03/10 01:49:15;;;;;;;2.30;0.50;;;;;;;13.02;68.52;98270.13;5073365;28;20230;-72
2023/03/10 01:51:47;;;;;;;0.90;0.43;;;;;;;13.01;69.03;98273.03;5075515;28;20209;-72
2023/03/10 01:54:20;;;;;;;1.63;0.70;;;;;;;12.91;69.67;98273.50;5079227;28;20681;-72
2023/03/10 01:56:49;;;;;;;0.77;0.40;;;;;;;12.79;70.38;98254.75;5073021;28;21063;-73
2023/03/10 01:59:19;;;;;;;1.63;0.43;;;;;;;12.71;71.10;98256.88;5072813;28;20214;-74
2023/03/10 02:01:48;;;;;;;2.10;0.50;;;;;;;12.71;71.45;98256.88;5074468;28;20203;-72
2023/03/10 02:04:20;;;;;;;1.40;0.47;;;;;;;12.62;72.24;98250.19;5076252;28;20211;-71
2023/03/10 02:06:48;;;;;;;1.23;0.40;;;;;;;12.52;73.30;98250.66;5077941;28;20234;-73
2023/03/10 02:09:17;;;;;;;1.07;0.50;;;;;;;12.52;73.38;98252.47;5076630;28;20284;-71
2023/03/10 02:11:46;;;;;;;1.57;0.60;;;;;;;12.51;73.61;98245.53;5073444;28;20215;-72
2023/03/10 02:14:15;;;;;;;1.20;0.50;;;;;;;12.51;74.04;98240.22;5078525;28;20262;-73
2023/03/10 02:16:44;;;;;;;1.23;0.33;;;;;;;12.47;74.41;98233.72;5074152;28;20309;-73
2023/03/10 02:19:22;;;;;;;1.37;0.50;;;;;;;12.54;74.16;98221.19;5076385;28;20208;-73
2023/03/10 02:22:00;;;;;;;0.80;0.33;;;;;;;12.58;74.09;98219.72;5073927;28;20219;-71
2023/03/10 02:24:36;;;;;;;0.83;0.40;;;;;;;12.51;74.68;98225.09;5074567;28;20199;-72
2023/03/10 02:27:13;;;;;;;1.70;0.50;;;;;;;12.58;74.50;98219.72;5080684;28;20590;-73
2023/03/10 02:29:44;;;;;;;1.07;0.33;;;;;;;12.54;74.79;98227.31;5075799;28;20217;-72
2023/03/10 02:32:27;;;;;;;1.90;0.40;;;;;;;12.52;75.03;98223.25;5078174;28;20211;-73
2023/03/10 02:34:54;;;;;;;3.13;0.47;;;;;;;12.53;75.05;98217.72;5077215;28;20214;-71
2023/03/10 02:37:24;;;;;;;2.27;0.70;;;;;;;12.47;75.40;98207.97;5075328;28;20238;-73
2023/03/10 02:39:52;;;;;;;2.07;0.60;;;;;;;12.46;75.66;98208.16;5075214;28;20348;-73
2023/03/10 02:42:24;;;;;;;0.83;0.40;;;;;;;12.48;75.79;98200.81;5074715;28;20214;-76
2023/03/10 02:44:53;;;;;;;0.63;0.27;;;;;;;12.50;75.46;98198.72;5074906;28;20215;-72
2023/03/10 02:47:20;;;;;;;1.47;0.40;;;;;;;12.49;75.51;98199.78;5074785;28;20322;-72
2023/03/10 02:49:49;;;;;;;0.90;0.40;;;;;;;12.51;75.54;98198.50;5074961;28;20329;-74
2023/03/10 02:52:25;;;;;;;1.53;0.47;;;;;;;12.48;75.70;98196.31;5075030;28;20306;-74
2023/03/10 02:54:53;;;;;;;1.70;0.40;;;;;;;12.36;76.42;98196.16;5074773;28;20206;-73
2023/03/10 02:57:22;;;;;;;2.37;0.40;;;;;;;12.41;76.60;98203.47;5075067;28;20215;-72
2023/03/10 02:59:50;;;;;;;1.97;0.67;;;;;;;12.50;75.77;98190.75;5073796;28;20240;-73
2023/03/10 03:02:18;;;;;;;1.57;0.47;;;;;;;12.54;75.33;98199.94;5076199;28;20203;-71
2023/03/10 03:04:46;;;;;;;0.93;0.43;;;;;;;12.53;74.99;98193.81;5076127;28;20332;-73
2023/03/10 03:07:13;;;;;;;1.93;0.50;;;;;;;12.54;74.52;98187.47;5073288;28;20236;-72
2023/03/10 03:09:41;;;;;;;2.37;0.50;;;;;;;12.54;74.71;98191.97;5075144;28;20230;-72
2023/03/10 03:12:09;;;;;;;4.03;0.47;;;;;;;12.59;74.53;98192.94;5073220;28;20218;-73
2023/03/10 03:14:38;;;;;;;1.83;0.63;;;;;;;12.52;75.14;98201.97;5076138;28;20233;-73
2023/03/10 03:17:06;;;;;;;1.07;0.53;;;;;;;12.52;75.03;98192.16;5074042;28;20214;-71
2023/03/10 03:19:34;;;;;;;2.23;0.47;;;;;;;12.52;75.40;98191.34;5077002;28;20217;-73
2023/03/10 03:22:01;;;;;;;1.47;0.43;;;;;;;12.56;75.37;98197.88;5075700;28;20222;-72
2023/03/10 03:24:30;;;;;;;2.10;0.50;;;;;;;12.53;74.50;98192.97;5072853;28;20219;-71
2023/03/10 03:26:58;;;;;;;2.07;0.50;;;;;;;12.56;74.22;98185.41;5074397;28;20222;-74
2023/03/10 03:29:26;;;;;;;1.80;0.50;;;;;;;12.58;74.28;98187.81;5071898;28;20756;-73
2023/03/10 03:31:55;;;;;;;3.47;0.60;;;;;;;12.66;73.75;98182.28;5073791;28;20620;-73
2023/03/10 03:34:23;;;;;;;1.00;0.40;;;;;;;12.65;73.52;98172.66;5074263;28;20303;-72
2023/03/10 03:36:51;;;;;;;1.80;0.50;;;;;;;12.57;73.49;98178.25;5075849;28;20242;-72
2023/03/10 03:39:18;;;;;;;1.83;0.50;;;;;;;12.59;73.20;98173.50;5073139;28;20220;-72
2023/03/10 03:41:47;;;;;;;1.10;0.50;;;;;;;12.57;73.15;98172.94;5072629;28;20216;-73
2023/03/10 03:44:15;;;;;;;1.67;0.43;;;;;;;12.61;72.97;98166.13;5073171;28;20206;-72
2023/03/10 03:46:43;;;;;;;5.90;0.50;;;;;;;12.62;72.63;98149.16;5071412;28;20213;-73
2023/03/10 03:49:12;;;;;;;1.23;0.40;;;;;;;12.56;72.82;98160.66;5075317;28;20680;-73
2023/03/10 03:51:40;;;;;;;3.73;0.70;;;;;;;12.66;72.00;98163.66;5074759;28;20237;-73
2023/03/10 03:54:07;;;;;;;2.37;0.60;;;;;;;12.72;71.19;98158.28;5072332;28;20199;-72
2023/03/10 03:56:35;;;;;;;3.57;0.60;;;;;;;12.69;71.35;98157.88;5070873;28;20215;-70
2023/03/10 03:59:04;;;;;;;1.20;0.37;;;;;;;12.69;71.84;98155.22;5074295;28;20199;-71
2023/03/10 04:01:31;;;;;;;2.07;1.07;;;;;;;12.65;72.12;98159.38;5070984;28;20755;-73
2023/03/10 04:03:59;;;;;;;2.90;0.57;;;;;;;12.66;72.43;98158.34;5074712;28;20207;-74
2023/03/10 04:06:28;;;;;;;3.13;0.67;;;;;;;12.58;72.82;98162.06;5074788;28;20229;-72
2023/03/10 04:08:56;;;;;;;2.97;0.50;;;;;;;12.59;72.51;98152.25;5074845;28;20239;-73
2023/03/10 04:11:24;;;;;;;2.77;0.50;;;;;;;12.52;73.31;98162.13;5073822;28;20259;-72
2023/03/10 04:13:51;;;;;;;3.67;0.70;;;;;;;12.45;73.28;98151.53;5074174;28;20442;-73
2023/03/10 04:16:19;;;;;;;4.47;0.63;;;;;;;12.46;71.62;98163.00;5072353;28;20212;-73
2023/03/10 04:18:47;;;;;;;6.37;1.13;;;;;;;12.48;70.23;98158.28;5071552;28;20287;-71
2023/03/10 04:21:16;;;;;;;6.57;1.40;;;;;;;12.51;69.44;98155.97;5072410;28;20210;-71
2023/03/10 04:23:45;;;;;;;3.80;0.60;;;;;;;12.54;68.81;98152.91;5069550;28;20264;-75
2023/03/10 04:26:14;;;;;;;7.47;0.70;;;;;;;12.62;68.57;98167.75;5072160;28;20215;-71
2023/03/10 04:28:41;;;;;;;4.07;0.53;;;;;;;12.61;68.71;98158.16;5072316;28;20584;-72
2023/03/10 04:31:14;;;;;;;2.77;0.60;;;;;;;12.66;68.89;98161.81;5074194;28;20823;-73
2023/03/10 04:33:42;;;;;;;4.60;0.80;;;;;;;12.75;68.76;98162.34;5073220;28;20302;-72
2023/03/10 04:36:11;;;;;;;5.53;0.90;;;;;;;12.81;68.87;98164.13;5069625;28;20238;-72
2023/03/10 04:38:40;;;;;;;3.73;0.67;;;;;;;12.66;70.12;98163.66;5072214;28;20240;-72
2023/03/10 04:41:09;;;;;;;1.93;0.60;;;;;;;12.55;70.77;98153.72;5072081;28;20560;-72
2023/03/10 04:43:37;;;;;;;4.57;0.93;;;;;;;12.49;71.11;98157.25;5070770;28;20229;-71
2023/03/10 04:46:06;;;;;;;5.20;0.83;;;;;;;12.48;71.12;98148.47;5073213;28;20808;-72
2023/03/10 04:48:34;;;;;;;4.17;0.80;;;;;;;12.47;70.67;98154.81;5075882;28;20261;-73
2023/03/10 04:51:04;;;;;;;3.87;0.53;;;;;;;12.44;70.68;98157.88;5074007;28;21297;-72
2023/03/10 04:53:33;;;;;;;3.50;0.40;;;;;;;12.43;70.63;98157.06;5074922;28;20254;-73
2023/03/10 04:56:02;;;;;;;4.47;0.70;;;;;;;12.41;70.58;98137.84;5074360;28;21090;-73
2023/03/10 04:58:31;;;;;;;5.73;1.27;;;;;;;12.42;71.97;98147.47;5073857;28;20322;-72
2023/03/10 05:00:59;;;;;;;3.50;0.83;;;;;;;12.33;74.57;98138.13;5078162;28;20301;-73
2023/03/10 05:03:30;;;;;;;1.63;0.70;;;;;;;12.19;77.24;98131.28;5072490;28;20211;-73
2023/03/10 05:05:58;;;;;;;4.30;1.00;;;;;;;12.08;78.60;98118.69;5073183;28;21957;-72
2023/03/10 05:08:25;;;;;;;6.33;1.00;;;;;;;11.94;80.08;98120.63;5070895;28;20301;-70
2023/03/10 05:10:53;;;;;;;5.33;1.00;;;;;;;11.91;80.82;98112.25;5072851;28;20230;-71
2023/03/10 05:13:21;;;;;;;2.57;0.87;;;;;;;11.79;81.92;98104.16;5074310;28;20235;-72
2023/03/10 05:15:50;;;;;;;6.23;1.10;;;;;;;11.76;82.01;98109.91;5076923;28;20715;-72
2023/03/10 05:18:18;;;;;;;8.33;1.17;;;;;;;11.73;82.27;98107.63;5076645;28;20406;-72
2023/03/10 05:20:52;;;;;;;3.17;0.80;;;;;;;11.66;82.61;98107.69;5076549;28;20207;-70
2023/03/10 05:23:20;;;;;;;3.20;0.80;;;;;;;11.64;82.42;98099.09;5075476;28;20229;-72
2023/03/10 05:25:48;;;;;;;5.83;0.73;;;;;;;11.60;82.24;98094.44;5075018;28;20309;-72
2023/03/10 05:28:16;;;;;;;2.23;0.50;;;;;;;11.66;81.79;98091.75;5073637;28;20210;-72
2023/03/10 05:30:44;;;;;;;5.07;1.10;;;;;;;11.60;81.91;98081.16;5074228;28;20226;-71
2023/03/10 05:33:15;;;;;;;5.83;1.00;;;;;;;11.62;81.52;98093.19;5074849;28;20218;-71
2023/03/10 05:35:42;;;;;;;3.53;1.10;;;;;;;11.63;81.54;98086.84;5078392;28;20884;-72
2023/03/10 05:38:10;;;;;;;4.17;1.13;;;;;;;11.68;81.25;98081.75;5075917;28;20257;-72
2023/03/10 05:40:40;;;;;;;3.90;1.23;;;;;;;11.74;80.20;98084.56;5075220;28;20210;-71
2023/03/10 05:43:08;;;;;;;3.73;0.70;;;;;;;11.67;79.62;98080.09;5075042;28;20221;-71
2023/03/10 05:45:37;;;;;;;5.63;1.20;;;;;;;11.70;79.04;98077.00;5073042;28;20299;-71
2023/03/10 05:48:05;;;;;;;5.47;1.17;;;;;;;11.64;79.33;98075.22;5074557;28;20224;-70
2023/03/10 05:50:34;;;;;;;4.70;1.20;;;;;;;11.69;79.06;98075.41;5074573;28;20671;-71
2023/03/10 05:53:02;;;;;;;3.80;1.30;;;;;;;11.71;78.88;98069.84;5071558;28;20637;-72
2023/03/10 05:55:29;;;;;;;5.40;1.20;;;;;;;11.64;79.31;98075.22;5075067;28;20207;-70
2023/03/10 05:57:57;;;;;;;5.77;1.50;;;;;;;11.60;79.70;98068.72;5073613;28;20213;-71
2023/03/10 06:00:26;;;;;;;4.60;1.53;;;;;;;11.62;79.85;98061.34;5072263;28;20213;-72
2023/03/10 06:02:53;;;;;;;3.50;0.93;;;;;;;11.72;79.60;98068.03;5074246;28;20237;-72
2023/03/10 06:05:21;;;;;;;5.63;1.30;;;;;;;11.80;78.86;98065.97;5073014;28;20218;-71
2023/03/10 06:07:51;;;;;;;8.63;1.20;;;;;;;11.78;79.16;98065.38;5072064;28;20542;-72
2023/03/10 06:10:18;;;;;;;5.43;1.10;;;;;;;11.70;79.76;98062.91;5071347;28;20316;-72
2023/03/10 06:12:46;;;;;;;5.17;1.40;;;;;;;11.69;80.09;98062.13;5069586;28;21236;-73
2023/03/10 06:15:14;;;;;;;2.50;1.10;;;;;;;11.66;80.29;98051.13;5071028;28;20225;-72
2023/03/10 06:17:42;;;;;;;13.03;1.77;;;;;;;11.60;80.68;98058.09;5071450;28;20298;-73
2023/03/10 06:20:10;;;;;;;8.03;1.43;;;;;;;11.65;80.49;98058.25;5071635;28;20204;-73
2023/03/10 06:22:38;;;;;;;5.97;1.57;;;;;;;11.58;80.36;98051.38;5072120;28;20212;-72
2023/03/10 06:25:09;;;;;;;5.80;1.20;;;;;;;11.61;80.17;98053.56;5069998;28;20583;-71
2023/03/10 06:27:36;;;;;;;8.47;1.40;;;;;;;11.66;79.33;98048.47;5069712;28;20753;-72
2023/03/10 06:30:05;;;;;;;9.90;1.40;;;;;;;11.75;78.31;98051.72;5071227;28;20222;-71
2023/03/10 06:32:34;;;;;;;5.07;1.13;;;;;;;11.76;78.08;98048.03;5072778;28;20243;-73
2023/03/10 06:35:03;;;;;;;5.83;1.10;;;;;;;11.80;77.62;98051.88;5072201;28;20810;-72
2023/03/10 06:37:31;;;;;;;6.47;1.30;;;;;;;11.87;76.96;98057.97;5070212;28;20376;-72
2023/03/10 06:39:58;;;;;;;5.23;1.20;;;;;;;11.87;77.11;98056.13;5069167;28;20594;-72
2023/03/10 06:42:27;;;;;;;6.70;1.43;;;;;;;11.92;76.87;98066.09;5073536;28;20209;-74
2023/03/10 06:44:55;;;;;;;5.03;1.30;;;;;;;11.84;76.94;98056.56;5072066;28;20352;-72
2023/03/10 06:47:23;;;;;;;5.67;1.10;;;;;;;11.91;77.11;98049.34;5073726;28;20224;-73
2023/03/10 06:49:53;;;;;;;4.20;1.30;;;;;;;11.96;76.95;98054.03;5074483;28;20214;-72
2023/03/10 06:52:21;;;;;;;5.93;1.30;;;;;;;11.99;76.59;98045.59;5074498;28;20266;-74
2023/03/10 06:54:49;;;;;;;6.57;0.90;;;;;;;12.03;77.01;98057.44;5072547;28;20596;-72
2023/03/10 06:57:16;;;;;;;7.37;1.23;;;;;;;12.10;76.08;98050.22;5072927;28;20222;-72
2023/03/10 06:59:48;;;;;;;6.13;1.57;;;;;;;12.17;75.63;98064.28;5073961;28;20218;-72
2023/03/10 07:02:18;;;;;;;5.93;1.77;;;;;;;12.21;75.55;98062.00;5070417;28;20569;-65
2023/03/10 07:04:46;;;;;;;7.33;1.37;;;;;;;12.27;75.33;98059.28;5071702;28;20217;-66
2023/03/10 07:07:14;;;;;;;7.40;1.20;;;;;;;12.30;75.06;98056.22;5070347;28;20909;-65
2023/03/10 07:09:42;;;;;;;4.43;1.37;;;;;;;12.34;75.07;98060.03;5070625;28;20588;-66
2023/03/10 07:12:10;;;;;;;4.37;1.00;;;;;;;12.36;74.92;98051.84;5072911;28;20329;-66
2023/03/10 07:14:37;;;;;;;4.97;1.07;;;;;;;12.33;75.10;98053.09;5071608;28;20211;-66
2023/03/10 07:17:06;;;;;;;7.43;1.50;;;;;;;12.33;75.36;98053.09;5071454;28;20207;-65
2023/03/10 07:19:34;;;;;;;7.33;1.50;;;;;;;12.33;75.51;98053.09;5071855;28;20313;-66
2023/03/10 07:22:02;;;;;;;4.27;1.00;;;;;;;12.36;75.30;98042.03;5072400;28;20216;-66
2023/03/10 07:24:30;;;;;;;5.47;1.30;;;;;;;12.36;75.46;98063.31;5072439;28;20666;-66
2023/03/10 07:26:59;;;;;;;6.40;1.20;;;;;;;12.36;75.26;98063.31;5071473;28;20219;-65
2023/03/10 07:29:26;;;;;;;5.23;1.17;;;;;;;12.31;75.35;98062.34;5073091;28;20222;-67
2023/03/10 07:31:54;;;;;;;6.30;1.43;;;;;;;12.30;72.39;98056.22;5072064;28;20217;-65
2023/03/10 07:34:23;;;;;;;5.10;1.20;;;;;;;12.38;71.48;98066.56;5072259;28;20249;-66
2023/03/10 07:36:51;;;;;;;5.17;1.10;;;;;;;12.48;68.09;98065.25;5072886;28;20270;-66
2023/03/10 07:39:19;;;;;;;4.27;0.90;;;;;;;12.54;67.58;98080.31;5073215;28;20203;-65
2023/03/10 07:41:47;;;;;;;4.90;0.70;;;;;;;12.53;65.98;98082.16;5070699;28;20221;-66
2023/03/10 07:44:15;;;;;;;6.00;0.73;;;;;;;12.59;65.57;98086.59;5074827;28;20246;-66
2023/03/10 07:46:43;;;;;;;3.37;0.70;;;;;;;12.58;65.21;98081.50;5068560;28;20207;-66
2023/03/10 07:49:11;;;;;;;7.03;0.63;;;;;;;12.59;64.96;98088.44;5071220;28;20234;-68
2023/03/10 07:51:40;;;;;;;3.90;0.70;;;;;;;12.62;65.50;98088.84;5074856;28;20203;-66
2023/03/10 07:54:07;;;;;;;1.90;0.40;;;;;;;12.60;65.69;98101.53;5071105;28;20281;-66
2023/03/10 07:56:35;;;;;;;3.00;0.50;;;;;;;12.62;66.32;98099.47;5071917;28;20706;-67
2023/03/10 07:59:03;;;;;;;3.13;0.70;;;;;;;12.62;67.58;98103.97;5070554;28;20601;-65
2023/03/10 08:01:31;;;;;;;2.30;0.60;;;;;;;12.65;68.58;98100.88;5064845;28;20218;-67
2023/03/10 08:03:59;;;;;;;4.53;0.47;;;;;;;12.62;69.60;98096.00;5069163;28;20217;-66
2023/03/10 08:06:29;;;;;;;1.50;0.43;;;;;;;12.61;67.63;98097.84;5073569;28;20343;-67
2023/03/10 08:08:58;;;;;;;1.87;0.57;;;;;;;12.63;65.79;98100.28;5069530;28;20200;-65
2023/03/10 08:11:26;;;;;;;2.13;0.40;;;;;;;12.67;65.34;98093.47;5068878;28;20602;-65
2023/03/10 08:13:54;;;;;;;1.00;0.20;;;;;;;12.68;65.28;98087.94;5069859;28;20234;-64
2023/03/10 08:16:22;;;;;;;0.90;0.30;;;;;;;12.66;65.83;98100.66;5070607;28;20211;-64
2023/03/10 08:18:52;;;;;;;2.43;0.30;;;;;;;12.64;66.27;98102.72;5070646;28;20217;-64
2023/03/10 08:21:20;;;;;;;1.47;0.40;;;;;;;12.68;66.50;98089.78;5072698;28;20211;-64
2023/03/10 08:23:47;;;;;;;2.23;0.50;;;;;;;12.74;66.35;98107.53;5071986;28;21005;-65
2023/03/10 08:26:18;;;;;;;1.40;0.50;;;;;;;12.80;66.59;98093.38;5072821;28;20210;-65
2023/03/10 08:28:46;;;;;;;2.87;0.40;;;;;;;12.97;66.57;98107.72;5073146;28;20743;-62
2023/03/10 08:31:16;;;;;;;1.83;0.40;;;;;;;13.09;66.45;98110.47;5071715;28;20262;-64
2023/03/10 08:33:45;;;;;;;2.40;0.50;;;;;;;13.24;65.78;98105.63;5072514;28;20226;-65
2023/03/10 08:36:15;;;;;;;7.20;1.67;;;;;;;13.30;66.93;98112.69;5074546;28;20243;-67
2023/03/10 08:38:43;;;;;;;8.00;2.03;;;;;;;13.25;68.84;98109.09;5073021;28;20693;-65
2023/03/10 08:41:13;;;;;;;4.50;1.10;;;;;;;13.07;70.38;98109.88;5071572;28;20323;-64
2023/03/10 08:43:43;;;;;;;4.17;1.20;;;;;;;12.98;70.32;98114.66;5070627;28;20215;-68
2023/03/10 08:46:13;;;;;;;8.83;0.90;;;;;;;12.88;69.77;98114.34;5071603;28;20622;-66
2023/03/10 08:48:41;;;;;;;5.90;1.20;;;;;;;12.93;68.85;98106.50;5070177;28;20659;-65
2023/03/10 08:51:10;;;;;;;3.03;0.67;;;;;;;12.90;68.65;98112.28;5076421;28;20685;-67
2023/03/10 08:53:42;;;;;;;7.87;1.50;;;;;;;12.75;68.59;98119.81;5075015;28;20211;-65
2023/03/10 08:56:10;;;;;;;4.57;0.80;;;;;;;13.18;68.22;98117.97;5071557;28;20230;-66
2023/03/10 08:58:38;;;;;;;2.83;0.73;;;;;;;14.76;63.14;98122.13;5072175;28;20222;-65
2023/03/10 09:01:07;;;;;;;3.03;0.70;;;;;;;16.39;57.35;98121.69;5071877;28;20578;-67
2023/03/10 09:03:35;;;;;;;4.13;0.90;;;;;;;17.44;53.07;98127.00;5072891;28;20223;-66
2023/03/10 09:06:04;;;;;;;3.00;0.77;;;;;;;17.63;51.74;98132.91;5069668;28;20227;-67
2023/03/10 09:08:32;;;;;;;3.33;1.03;;;;;;;16.95;52.47;98135.97;5071012;28;20204;-66
2023/03/10 09:11:00;;;;;;;5.73;1.00;;;;;;;16.24;53.31;98142.81;5070720;28;20207;-66
2023/03/10 09:13:27;;;;;;;5.80;0.87;;;;;;;15.72;55.16;98142.91;5074262;28;20234;-66
2023/03/10 09:15:55;;;;;;;3.57;0.60;;;;;;;15.48;56.13;98136.78;5070660;28;20211;-67
2023/03/10 09:18:25;;;;;;;4.27;0.87;;;;;;;15.11;57.40;98149.63;5071632;28;20939;-65
2023/03/10 09:20:53;;;;;;;5.47;1.00;;;;;;;14.67;58.96;98146.47;5071750;28;20207;-65
2023/03/10 09:23:20;;;;;;;4.23;1.37;;;;;;;14.37;60.28;98140.34;5070244;28;20218;-67
2023/03/10 09:25:48;;;;;;;7.23;1.23;;;;;;;14.12;60.04;98153.03;5064602;28;20269;-66
2023/03/10 09:28:16;;;;;;;3.47;0.73;;;;;;;13.79;61.03;98156.97;5074286;28;20809;-67
2023/03/10 09:30:46;;;;;;;3.20;0.80;;;;;;;13.62;62.95;98157.81;5072394;28;20214;-66
2023/03/10 09:33:17;;;;;;;3.50;0.63;;;;;;;13.48;63.60;98157.94;5073788;28;20283;-66
2023/03/10 09:35:48;;;;;;;3.33;1.00;;;;;;;13.33;65.00;98162.81;5073259;28;20358;-65
2023/03/10 09:38:33;;;;;;;5.70;0.87;;;;;;;13.15;65.86;98158.31;5073051;28;20310;-66
2023/03/10 09:41:10;;;;;;;4.93;1.30;;;;;;;13.06;67.27;98164.91;5070815;28;20218;-67
2023/03/10 09:43:43;;;;;;;2.60;0.37;;;;;;;13.05;67.67;98165.13;5072214;28;20209;-67
2023/03/10 09:46:20;;;;;;;2.87;0.50;;;;;;;13.08;67.39;98165.53;5070102;28;20235;-67
2023/03/10 09:48:56;;;;;;;2.33;0.50;;;;;;;13.09;67.52;98164.50;5073504;28;20210;-68
2023/03/10 09:51:28;;;;;;;3.50;0.43;;;;;;;13.09;68.08;98158.34;5072504;28;20686;-67
2023/03/10 09:54:13;;;;;;;1.37;0.47;;;;;;;13.00;68.81;98167.66;5074082;28;21109;-68
2023/03/10 09:56:40;;;;;;;1.97;0.50;;;;;;;12.99;69.08;98161.50;5076142;28;20291;-68
2023/03/10 09:59:15;;;;;;;4.93;0.73;;;;;;;13.09;69.45;98153.03;5077242;28;20762;-67
2023/03/10 10:01:46;;;;;;;2.53;0.57;;;;;;;13.23;69.72;98151.06;5075926;28;20217;-67
2023/03/10 10:04:20;;;;;;;2.37;0.70;;;;;;;13.38;70.18;98156.84;5077567;28;20281;-67
2023/03/10 10:06:50;;;;;;;3.47;1.20;;;;;;;13.51;71.06;98151.38;5076889;28;20736;-65
2023/03/10 10:09:25;;;;;;;1.97;0.50;;;;;;;13.64;70.53;98156.53;5075544;28;20389;-66
2023/03/10 10:11:52;;;;;;;5.20;1.37;;;;;;;13.64;69.67;98148.53;5074317;28;20778;-67
2023/03/10 10:14:22;;;;;;;3.67;0.90;;;;;;;13.52;70.70;98150.34;5076811;28;20235;-66
2023/03/10 10:17:06;;;;;;;2.87;0.80;;;;;;;13.56;70.80;98149.66;5075466;28;20294;-66
2023/03/10 10:19:38;;;;;;;4.50;1.37;;;;;;;13.57;70.46;98156.59;5073827;28;20737;-67
2023/03/10 10:22:13;;;;;;;3.53;0.93;;;;;;;13.51;69.63;98151.38;5070438;28;20325;-68
2023/03/10 10:24:41;;;;;;;4.33;1.00;;;;;;;13.49;69.31;98153.44;5075974;28;20201;-66
2023/03/10 10:27:09;;;;;;;2.23;0.87;;;;;;;13.60;69.68;98158.03;5073899;28;20215;-66
2023/03/10 10:29:41;;;;;;;4.80;0.87;;;;;;;13.76;70.16;98176.03;5074468;28;20214;-66
2023/03/10 10:32:11;;;;;;;5.03;0.77;;;;;;;13.69;69.83;98175.31;5074178;28;20215;-67
2023/03/10 10:34:41;;;;;;;3.90;0.70;;;;;;;13.47;72.06;98169.63;5074057;28;20322;-67
2023/03/10 10:37:27;;;;;;;3.63;0.70;;;;;;;13.65;72.55;98166.13;5074919;28;20243;-66
2023/03/10 10:39:56;;;;;;;3.40;0.80;;;;;;;13.79;71.65;98172.94;5076524;28;20239;-67
2023/03/10 10:42:26;;;;;;;2.77;0.43;;;;;;;14.07;70.96;98166.25;5079556;28;20214;-65
2023/03/10 10:44:56;;;;;;;3.87;0.50;;;;;;;14.58;69.57;98174.53;5076831;28;20206;-67
2023/03/10 10:47:27;;;;;;;2.33;0.47;;;;;;;14.57;69.03;98172.91;5074400;28;20251;-66
2023/03/10 10:50:08;;;;;;;2.50;0.50;;;;;;;14.33;69.64;98171.19;5074755;28;20904;-67
2023/03/10 10:52:37;;;;;;;2.07;0.70;;;;;;;14.14;70.29;98165.09;5074429;28;20576;-67
2023/03/10 10:55:06;;;;;;;2.00;0.67;;;;;;;14.05;70.55;98161.13;5074112;28;20374;-67
2023/03/10 10:57:37;;;;;;;1.73;0.43;;;;;;;13.99;71.50;98158.53;5079470;28;20240;-67
2023/03/10 11:00:24;;;;;;;3.77;1.00;;;;;;;14.06;71.26;98151.28;5075258;28;20221;-68
2023/03/10 11:02:51;;;;;;;3.30;0.60;;;;;;;13.85;71.46;98165.91;5073844;28;20902;-68
2023/03/10 11:05:22;;;;;;;3.73;0.63;;;;;;;13.71;69.04;98167.94;5074727;28;20849;-67
2023/03/10 11:07:52;;;;;;;1.20;0.40;;;;;;;13.52;68.46;98156.47;5075641;28;22017;-67
2023/03/10 11:10:26;;;;;;;1.70;0.40;;;;;;;13.53;69.00;98155.44;5070161;28;20308;-66
2023/03/10 11:13:00;;;;;;;4.40;0.67;;;;;;;13.29;68.84;98168.81;5076923;28;20215;-64
2023/03/10 11:15:32;;;;;;;2.30;0.60;;;;;;;13.34;69.31;98161.00;5077856;28;20980;-68
2023/03/10 11:18:07;;;;;;;1.67;0.40;;;;;;;13.39;68.98;98156.63;5073711;28;20279;-66
2023/03/10 11:20:42;;;;;;;2.27;0.50;;;;;;;13.41;68.18;98161.72;5075894;28;20203;-67
2023/03/10 11:23:22;;;;;;;2.57;0.77;;;;;;;13.38;68.71;98154.16;5074961;28;20211;-65
2023/03/10 11:25:58;;;;;;;2.87;0.50;;;;;;;13.32;70.19;98155.06;5075420;28;20668;-65
2023/03/10 11:28:38;;;;;;;4.33;0.90;;;;;;;13.40;69.64;98165.41;5076031;28;20220;-65
2023/03/10 11:31:17;;;;;;;1.73;0.50;;;;;;;13.36;68.97;98180.22;5075566;28;20221;-68
2023/03/10 11:33:55;;;;;;;1.10;0.43;;;;;;;13.37;67.97;98171.19;5073721;28;20295;-66
2023/03/10 11:36:34;;;;;;;1.20;0.40;;;;;;;13.37;68.27;98171.19;5077513;28;20770;-65
2023/03/10 11:39:28;;;;;;;0.90;0.30;;;;;;;13.38;68.28;98172.81;5077706;28;20232;-66
2023/03/10 11:42:02;;;;;;;2.77;0.33;;;;;;;13.37;68.83;98157.88;5075735;28;20202;-68
2023/03/10 11:44:38;;;;;;;2.70;0.60;;;;;;;13.28;68.81;98180.50;5072131;28;20213;-68
2023/03/10 11:47:15;;;;;;;3.57;0.70;;;;;;;13.15;67.92;98163.63;5079524;28;20207;-67